Terminal Aerodrome Forecast
Issued by NWS Quad Cities IA IL

Home | Current Version | Previous Version | Text Only | Print | Product List | Glossary On
Versions: 1 2 3 4 5 6 7 8 9 10 11 12 13 14 15 16 17 18 19 20 21 22 23 24 25 26 27 28 29 30 31 32 33 34 35 36 37
402
FTUS43 KDVN 062050 AAA
TAFDBQ
TAF AMD
KDBQ 062050Z 0621/0718 28015KT P6SM BKN020
      TEMPO 0621/0624 SCT020
     FM070000 27012KT P6SM SKC
     FM071000 27012KT P6SM SCT030 SCT100=

USA.gov is the U.S. government's official web portal to all federal, state and local government web resources and services.